Terminal Aerodrome Forecast
Issued by NWS

Home | Current Version | Previous Version | Text Only | Print | Product List | Glossary On
Versions: 1 2 3 4 5 6 7 8 9 10 11 12 13 14 15 16 17 18 19 20 21 22 23
946
FTUS43 KAPX 240525
TAFAPN
TAF
KAPN 240525Z 2406/2506 32005KT P6SM SCT100
     FM241400 29008KT P6SM SCT250
     FM241800 30008KT P6SM VCSH BKN050
     FM250000 29004KT P6SM BKN100=

USA.gov is the U.S. government's official web portal to all federal, state and local government web resources and services.